Aeroporto :
LOGIN :

Iscrizione | Disclaimer

   EN    FR    IT 

 










Sommario :    VFR   VFR Marginale   IFR   IFR Intensivo   IFR Molto Intensivo
Visibilità : 
Base nubi : 
>= 8 km
>= 3000ft
5 / 8 km
1000 / 3000 ft
1500m / 5 km
500 / 1000 ft
800 / 1500m
200 / 500 ft
< 800m
< 200 ft
Simboli :   Temporali  Nebbia  Neve Forte  Precipitazioni Forti  Vento > 20 kt
SIGMETs :   Varie  Temporali  Ghiacco  Turbolenza  Onda orograficha  Ceneri Vulcaniche






- Altitudine del aeroporto : 37 ft
- Codice IATA : FRO


ENFL - Florø

ULTIMO METAR :
  • 291350Z AUTO 09022KT 9999NDV OVC130/// 05/M04 Q0981

METARs OBSOLETI :
  • 291320Z AUTO 10019KT 9999NDV OVC130/// 05/M06 Q0982
  • 291250Z AUTO 10020KT 9999NDV OVC130/// 04/M05 Q0983
  • 291220Z AUTO 11022KT 9999NDV OVC130/// 04/M06 Q0983
  • 291150Z 10021KT CAVOK 04/M08 Q0984
  • 291120Z 10021KT CAVOK 04/M08 Q0985
  • 291050Z 10020KT CAVOK 03/M08 Q0986

TAF TAF ENFL
Valido dal 29 a 12 ore il 29 a 21 ore UTC


291100Z 2912/2921 10018KT CAVOK
TEMPO 2912/2921 10020G30KT



MetMap, La meteo Aeronautica in un colpo d'occhio ! - Copyright ORBIFLY Dicembre 2007 - Disclaimer

ORBIFLY MET'MAP TEAM :

Programmazione e sviluppo : Alexandra Zaïnal
Concezione : Baudouin d'Aumeries
Aiuto per la programmazione : Marc-Olivier Méhu
Supporto tecnico e logistico : Manuel Goepfert
Aiuto per la traduzione : Arnaldo La Scala

Contatto : metmap@orbifly.com




FONTI E CREDITI :

   NOAA